createdAt,value
2019-05-21T00:01:10.551Z,5.00
2019-05-21T00:03:40.451Z,4.30
2019-05-21T00:06:10.416Z,5.27
2019-05-21T00:08:40.284Z,5.30
2019-05-21T00:11:10.154Z,4.20
2019-05-21T00:13:40.104Z,4.90
2019-05-21T00:16:09.992Z,5.17
2019-05-21T00:18:39.885Z,5.23
2019-05-21T00:21:09.817Z,4.97
2019-05-21T00:23:39.711Z,4.30
2019-05-21T00:26:09.671Z,4.93
2019-05-21T00:28:40.835Z,5.60
2019-05-21T00:31:46.270Z,5.27
2019-05-21T00:34:52.180Z,4.73
2019-05-21T00:37:57.999Z,5.10
2019-05-21T00:41:03.861Z,5.30
2019-05-21T00:43:52.853Z,5.70
2019-05-21T00:46:22.840Z,5.90
2019-05-21T00:48:52.823Z,5.90
2019-05-21T00:51:22.808Z,6.53
2019-05-21T00:53:52.879Z,5.13
2019-05-21T00:56:22.779Z,5.70
2019-05-21T00:58:52.656Z,5.70
2019-05-21T01:01:22.630Z,5.67
2019-05-21T01:03:52.524Z,5.20
2019-05-21T01:06:22.426Z,5.27
2019-05-21T01:08:52.379Z,5.87
2019-05-21T01:11:22.248Z,6.20
2019-05-21T01:13:52.124Z,5.23
2019-05-21T01:16:22.055Z,6.47
2019-05-21T01:18:51.926Z,8.00
2019-05-21T01:21:21.930Z,6.60
2019-05-21T01:23:51.872Z,8.40
2019-05-21T01:26:21.782Z,7.57
2019-05-21T01:28:51.730Z,7.90
2019-05-21T01:31:21.690Z,8.03
2019-05-21T01:33:51.587Z,7.00
2019-05-21T01:36:21.487Z,7.37
2019-05-21T01:38:51.536Z,7.97
2019-05-21T01:41:21.432Z,8.67
2019-05-21T01:43:51.314Z,7.73
2019-05-21T01:46:21.258Z,7.60
2019-05-21T01:48:51.126Z,8.33
2019-05-21T01:51:21.015Z,7.33
2019-05-21T01:53:51.070Z,7.27
2019-05-21T01:56:20.954Z,6.93
2019-05-21T01:58:50.840Z,8.10
2019-05-21T02:01:20.870Z,7.70
2019-05-21T02:03:50.759Z,7.40
2019-05-21T02:06:20.947Z,8.13
2019-05-21T02:08:50.880Z,8.10
2019-05-21T02:11:20.764Z,8.43
2019-05-21T02:13:50.667Z,8.90
2019-05-21T02:16:20.649Z,8.90
2019-05-21T02:18:50.542Z,8.80
2019-05-21T02:21:20.433Z,8.00
2019-05-21T02:23:50.395Z,9.70
2019-05-21T02:26:20.286Z,9.73
2019-05-21T02:28:50.199Z,9.17
2019-05-21T02:31:20.184Z,7.90
2019-05-21T02:33:50.195Z,8.60
2019-05-21T02:36:20.073Z,8.43
2019-05-21T02:38:50.035Z,8.43
2019-05-21T02:41:19.892Z,9.27
2019-05-21T02:43:49.793Z,10.40
2019-05-21T02:46:19.832Z,8.93
2019-05-21T02:48:49.705Z,8.77
2019-05-21T02:51:19.588Z,9.40
2019-05-21T02:53:49.563Z,9.97
2019-05-21T02:56:19.487Z,8.67
2019-05-21T02:58:49.361Z,9.07
2019-05-21T03:01:29.146Z,8.27
2019-05-21T03:03:59.044Z,8.97
2019-05-21T03:06:28.918Z,8.77
2019-05-21T03:08:58.978Z,8.80
2019-05-21T03:11:28.961Z,8.63
2019-05-21T03:13:58.924Z,8.07
2019-05-21T03:16:28.954Z,9.43
2019-05-21T03:18:59.058Z,10.27
2019-05-21T03:21:28.969Z,9.70
2019-05-21T03:23:58.920Z,8.13
2019-05-21T03:26:28.840Z,8.90
2019-05-21T03:28:58.882Z,7.77
2019-05-21T03:31:28.881Z,8.90
2019-05-21T03:33:58.835Z,9.70
2019-05-21T03:36:33.306Z,9.57
2019-05-21T03:39:00.647Z,8.83
2019-05-21T03:41:30.519Z,9.00
2019-05-21T03:44:00.422Z,9.33
2019-05-21T03:46:31.475Z,9.93
2019-05-21T03:49:01.511Z,10.80
2019-05-21T03:51:31.407Z,9.67
2019-05-21T03:54:01.357Z,9.33
2019-05-21T03:56:31.241Z,10.37
2019-05-21T03:59:02.557Z,10.43
2019-05-21T04:01:32.525Z,11.00
2019-05-21T04:04:02.405Z,12.43
2019-05-21T04:06:48.871Z,11.80
2019-05-21T04:09:08.192Z,10.13
2019-05-21T04:11:38.198Z,9.93
2019-05-21T04:14:08.189Z,11.17
2019-05-21T04:16:57.308Z,9.33
2019-05-21T04:19:31.131Z,11.67
2019-05-21T04:22:01.088Z,9.73
2019-05-21T04:24:30.977Z,9.90
2019-05-21T04:27:00.908Z,10.23
2019-05-21T04:29:30.931Z,9.80
2019-05-21T04:32:00.964Z,10.40
2019-05-21T04:34:30.923Z,10.07
2019-05-21T04:37:11.029Z,12.07
2019-05-21T04:39:32.435Z,12.67
2019-05-21T04:42:02.585Z,11.50
2019-05-21T04:44:32.544Z,10.20
2019-05-21T04:47:02.490Z,9.33
2019-05-21T04:49:32.393Z,9.30
2019-05-21T04:52:02.347Z,9.80
2019-05-21T04:54:32.233Z,11.07
2019-05-21T04:57:02.107Z,10.50
2019-05-21T04:59:32.055Z,9.23
2019-05-21T05:02:01.995Z,7.60
2019-05-21T05:04:31.992Z,8.33
2019-05-21T05:07:03.609Z,9.27
2019-05-21T05:09:35.911Z,10.57
2019-05-21T05:12:05.946Z,13.90
2019-05-21T05:14:36.499Z,14.70
2019-05-21T05:17:06.493Z,14.77
2019-05-21T05:19:36.443Z,15.37
2019-05-21T05:22:07.128Z,15.97
2019-05-21T05:24:37.278Z,15.73
2019-05-21T05:27:07.686Z,16.33
2019-05-21T05:29:37.616Z,15.80
2019-05-21T05:32:07.556Z,14.40
2019-05-21T05:34:37.424Z,14.77
2019-05-21T05:37:07.421Z,16.03
2019-05-21T05:39:37.457Z,11.90
2019-05-21T05:42:07.369Z,12.07
2019-05-21T05:44:37.636Z,12.17
2019-05-21T05:47:07.549Z,12.17
2019-05-21T05:49:41.945Z,12.00
2019-05-21T05:52:11.848Z,11.57
2019-05-21T05:54:41.863Z,11.87
2019-05-21T05:57:13.284Z,11.73
2019-05-21T05:59:43.354Z,12.50
2019-05-21T06:02:13.664Z,12.90
2019-05-21T06:04:44.315Z,13.03
2019-05-21T06:07:14.212Z,12.97
2019-05-21T06:09:44.216Z,12.50
2019-05-21T06:12:14.165Z,14.00
2019-05-21T06:14:44.051Z,14.93
2019-05-21T06:17:13.967Z,13.47
2019-05-21T06:19:43.943Z,12.40
2019-05-21T06:22:13.821Z,13.50
2019-05-21T06:24:43.707Z,12.20
2019-05-21T06:27:13.961Z,12.97
2019-05-21T06:29:44.208Z,12.67
2019-05-21T06:32:14.391Z,11.77
2019-05-21T06:34:44.717Z,10.43
2019-05-21T06:37:15.005Z,10.40
2019-05-21T06:39:45.173Z,10.33
2019-05-21T06:42:15.394Z,10.73
2019-05-21T06:44:45.669Z,10.27
2019-05-21T06:47:15.933Z,10.73
2019-05-21T06:49:46.227Z,10.30
2019-05-21T06:52:16.426Z,9.23
2019-05-21T06:54:46.654Z,10.53
2019-05-21T06:57:16.991Z,8.83
2019-05-21T06:59:47.132Z,8.40
2019-05-21T07:02:17.417Z,7.03
2019-05-21T07:04:47.677Z,8.23
2019-05-21T07:07:18.047Z,6.63
2019-05-21T07:09:48.229Z,6.30
2019-05-21T07:12:18.524Z,7.47
2019-05-21T07:14:48.731Z,8.00
2019-05-21T07:17:19.038Z,6.40
2019-05-21T07:19:49.273Z,6.07
2019-05-21T07:22:19.448Z,6.07
2019-05-21T07:24:49.714Z,5.00
2019-05-21T07:27:19.974Z,5.57
2019-05-21T07:29:50.247Z,4.50
2019-05-21T07:32:22.308Z,4.60
2019-05-21T07:34:53.120Z,4.23
2019-05-21T07:37:23.469Z,3.60
2019-05-21T07:39:53.694Z,3.00
2019-05-21T07:42:23.982Z,2.80
2019-05-21T07:44:54.175Z,3.17
2019-05-21T07:47:24.376Z,2.90
2019-05-21T07:49:54.628Z,3.33
2019-05-21T07:52:24.875Z,3.33
2019-05-21T07:54:54.977Z,3.33
2019-05-21T07:57:26.138Z,2.60
2019-05-21T07:59:56.390Z,3.17
2019-05-21T08:30:19.449Z,2.60
2019-05-21T08:51:09.930Z,3.00
2019-05-21T09:26:06.431Z,3.00
2019-05-21T09:44:36.221Z,4.00
2019-05-21T10:14:08.695Z,3.33
2019-05-21T10:16:38.874Z,3.20
2019-05-21T10:19:09.016Z,2.98
2019-05-21T10:21:42.125Z,3.67
2019-05-21T10:24:14.437Z,3.60
2019-05-21T10:26:44.558Z,3.20
2019-05-21T10:29:14.822Z,3.20
2019-05-21T10:31:45.083Z,3.40
2019-05-21T10:34:15.359Z,3.00
2019-05-21T10:36:47.444Z,3.65
2019-05-21T10:39:18.208Z,2.75
2019-05-21T10:41:48.877Z,2.98
2019-05-21T10:44:24.349Z,3.10
2019-05-21T10:46:54.935Z,3.10
2019-05-21T10:49:27.905Z,3.10
2019-05-21T10:51:58.139Z,3.00
2019-05-21T10:54:28.094Z,3.77
2019-05-21T10:56:58.396Z,2.90
2019-05-21T10:59:28.300Z,3.47
2019-05-21T11:02:21.107Z,3.35
2019-05-21T11:04:57.912Z,3.35
2019-05-21T11:07:28.395Z,3.42
2019-05-21T11:09:58.237Z,3.05
2019-05-21T11:12:28.050Z,3.45
2019-05-21T11:14:58.788Z,3.85
2019-05-21T11:17:28.875Z,3.40
2019-05-21T11:19:59.784Z,3.17
2019-05-21T11:22:29.761Z,3.12
2019-05-21T11:25:01.306Z,3.45
2019-05-21T11:27:31.112Z,2.95
2019-05-21T11:30:01.601Z,3.52
2019-05-21T11:32:31.608Z,3.30
2019-05-21T11:35:01.460Z,3.98
2019-05-21T11:37:33.803Z,3.65
2019-05-21T11:40:04.072Z,2.50
2019-05-21T11:42:33.937Z,2.52
2019-05-21T11:45:04.281Z,2.95
2019-05-21T11:47:35.500Z,3.17
2019-05-21T11:50:06.133Z,3.45
2019-05-21T11:52:36.015Z,3.42
2019-05-21T11:55:07.428Z,4.47
2019-05-21T11:57:37.261Z,3.37
2019-05-21T12:00:08.429Z,2.70
2019-05-21T12:02:38.368Z,3.10
2019-05-21T12:05:11.003Z,2.55
2019-05-21T12:07:43.977Z,3.20
2019-05-21T12:10:14.466Z,2.77
2019-05-21T12:12:44.675Z,3.05
2019-05-21T12:15:15.553Z,3.30
2019-05-21T12:17:45.860Z,3.35
2019-05-21T12:20:34.912Z,2.60
2019-05-21T12:22:49.212Z,2.85
2019-05-21T12:25:19.096Z,2.75
2019-05-21T12:27:48.922Z,2.40
2019-05-21T12:30:19.005Z,2.83
2019-05-21T12:32:48.806Z,3.20
2019-05-21T12:35:18.752Z,2.72
2019-05-21T12:37:49.074Z,2.05
2019-05-21T12:40:19.423Z,2.45
2019-05-21T12:42:50.506Z,1.98
2019-05-21T12:45:20.567Z,2.30
2019-05-21T12:47:50.862Z,2.55
2019-05-21T12:50:21.519Z,1.65
2019-05-21T12:52:51.396Z,2.35
2019-05-21T12:55:21.421Z,2.27
2019-05-21T12:57:51.354Z,2.22
2019-05-21T13:00:23.128Z,1.82
2019-05-21T13:02:52.932Z,2.80
2019-05-21T13:05:22.778Z,2.27
2019-05-21T13:07:54.856Z,2.42
2019-05-21T13:10:26.911Z,2.27
2019-05-21T13:12:56.132Z,2.42
2019-05-21T13:15:26.100Z,2.62
2019-05-21T13:17:56.256Z,2.50
2019-05-21T13:20:28.521Z,2.35
2019-05-21T13:22:58.971Z,2.25
2019-05-21T13:25:28.920Z,1.85
2019-05-21T13:28:00.143Z,2.17
2019-05-21T13:30:37.282Z,2.15
2019-05-21T13:33:07.208Z,2.50
2019-05-21T13:35:37.035Z,1.75
2019-05-21T13:38:07.385Z,2.40
2019-05-21T13:40:37.315Z,2.60
2019-05-21T13:43:07.122Z,2.37
2019-05-21T13:45:37.393Z,2.20
2019-05-21T13:48:07.563Z,2.10
2019-05-21T13:50:37.801Z,2.58
2019-05-21T13:53:07.730Z,3.20
2019-05-21T13:55:38.156Z,2.35
2019-05-21T13:58:08.077Z,2.05
2019-05-21T14:00:42.577Z,2.17
2019-05-21T14:03:13.100Z,3.90
2019-05-21T14:05:43.102Z,2.98
2019-05-21T14:08:12.982Z,2.20
2019-05-21T14:10:43.433Z,1.90
2019-05-21T14:13:13.928Z,1.70
2019-05-21T14:15:43.938Z,2.20
2019-05-21T14:18:13.852Z,2.40
2019-05-21T14:20:45.613Z,2.12
2019-05-21T14:23:15.889Z,2.10
2019-05-21T14:25:45.710Z,1.60
2019-05-21T14:28:15.560Z,1.92
2019-05-21T14:30:45.569Z,2.05
2019-05-21T14:33:15.359Z,1.85
2019-05-21T14:35:45.208Z,1.82
2019-05-21T14:38:16.644Z,2.35
2019-05-21T14:40:46.987Z,2.05
2019-05-21T14:43:16.844Z,1.92
2019-05-21T14:45:46.715Z,2.22
2019-05-21T14:48:16.914Z,1.80
2019-05-21T14:50:46.767Z,1.70
2019-05-21T14:53:16.644Z,1.82
2019-05-21T14:55:46.450Z,1.70
2019-05-21T14:58:16.255Z,2.12
2019-05-21T15:00:46.620Z,1.55
2019-05-21T15:03:24.935Z,2.00
2019-05-21T15:05:47.905Z,2.17
2019-05-21T15:08:17.767Z,1.95
2019-05-21T15:10:49.539Z,1.40
2019-05-21T15:13:20.301Z,1.90
2019-05-21T15:15:50.142Z,1.80
2019-05-21T15:18:22.342Z,1.72
2019-05-21T15:21:11.390Z,2.10
2019-05-21T15:23:43.205Z,2.15
2019-05-21T15:26:13.359Z,2.22
2019-05-21T15:28:43.250Z,1.82
2019-05-21T15:31:13.671Z,2.10
2019-05-21T15:33:44.020Z,1.55
2019-05-21T15:36:14.029Z,1.70
2019-05-21T15:38:50.168Z,2.27
2019-05-21T15:41:15.855Z,1.57
2019-05-21T15:43:45.668Z,1.67
2019-05-21T15:46:15.947Z,2.30
2019-05-21T15:48:46.352Z,1.80
2019-05-21T15:51:16.163Z,2.00
2019-05-21T15:53:46.080Z,2.33
2019-05-21T15:56:16.016Z,2.15
2019-05-21T15:58:45.821Z,1.95
2019-05-21T16:01:16.208Z,2.22
2019-05-21T16:03:46.084Z,2.10
2019-05-21T16:06:16.123Z,2.25
2019-05-21T16:08:46.433Z,2.15
2019-05-21T16:11:28.195Z,2.10
2019-05-21T16:13:48.988Z,1.80
2019-05-21T16:16:19.128Z,2.20
2019-05-21T16:18:49.861Z,2.42
2019-05-21T16:21:20.043Z,2.22
2019-05-21T16:23:49.914Z,2.25
2019-05-21T16:26:23.413Z,1.80
2019-05-21T16:28:52.937Z,2.30
2019-05-21T16:31:23.548Z,1.90
2019-05-21T16:33:53.392Z,2.30
2019-05-21T16:36:23.281Z,2.40
2019-05-21T16:38:53.131Z,2.27
2019-05-21T16:41:24.791Z,2.40
2019-05-21T16:43:54.940Z,2.80
2019-05-21T16:46:24.774Z,2.50
2019-05-21T16:48:55.882Z,2.55
2019-05-21T16:51:25.760Z,2.37
2019-05-21T16:53:55.685Z,2.62
2019-05-21T16:56:25.759Z,2.20
2019-05-21T16:58:55.591Z,2.83
2019-05-21T17:01:25.438Z,2.67
2019-05-21T17:03:59.930Z,2.33
2019-05-21T17:06:27.852Z,2.90
2019-05-21T17:08:58.169Z,2.60
2019-05-21T17:11:28.319Z,2.83
2019-05-21T17:13:58.144Z,2.77
2019-05-21T17:16:27.996Z,2.70
2019-05-21T17:18:57.807Z,3.50
2019-05-21T17:21:27.613Z,2.80
2019-05-21T17:24:07.791Z,2.72
2019-05-21T17:26:57.595Z,2.90
2019-05-21T17:29:27.722Z,3.20
2019-05-21T17:31:57.729Z,3.15
2019-05-21T17:34:27.667Z,3.12
2019-05-21T17:36:57.839Z,3.17
2019-05-21T17:39:27.961Z,3.30
2019-05-21T17:41:57.769Z,3.22
2019-05-21T17:44:27.647Z,3.25
2019-05-21T17:47:03.293Z,3.55
2019-05-21T17:49:33.157Z,3.42
2019-05-21T17:52:02.950Z,4.22
2019-05-21T17:54:56.227Z,3.77
2019-05-21T17:57:14.595Z,3.50
2019-05-21T17:59:44.873Z,3.85
2019-05-21T18:02:16.159Z,4.03
2019-05-21T18:04:46.407Z,4.00
2019-05-21T18:07:17.278Z,4.42
2019-05-21T18:09:47.307Z,3.60
2019-05-21T18:12:31.175Z,4.35
2019-05-21T18:14:49.687Z,4.00
2019-05-21T18:17:23.446Z,4.22
2019-05-21T18:19:53.615Z,4.33
2019-05-21T18:22:23.519Z,4.35
2019-05-21T18:24:53.442Z,4.00
2019-05-21T18:27:24.299Z,5.00
2019-05-21T18:29:54.255Z,4.50
2019-05-21T18:32:26.171Z,4.60
2019-05-21T18:34:56.104Z,4.87
2019-05-21T18:37:26.253Z,5.80
2019-05-21T18:39:57.820Z,5.12
2019-05-21T18:42:28.018Z,4.57
2019-05-21T18:44:57.845Z,5.10
2019-05-21T18:47:27.673Z,5.50
2019-05-21T18:49:57.726Z,4.97
2019-05-21T18:52:27.667Z,4.80
2019-05-21T18:54:57.465Z,4.93
2019-05-21T18:57:27.781Z,5.20
2019-05-21T18:59:57.896Z,5.23
2019-05-21T19:02:48.381Z,4.77
2019-05-21T19:05:18.580Z,5.53
2019-05-21T19:07:50.242Z,4.57
2019-05-21T19:10:20.489Z,5.20
2019-05-21T19:12:50.421Z,4.90
2019-05-21T19:15:20.787Z,5.60
2019-05-21T19:17:51.051Z,5.53
2019-05-21T19:20:21.641Z,5.43
2019-05-21T19:22:51.776Z,5.60
2019-05-21T19:25:23.141Z,5.10
2019-05-21T19:27:53.228Z,5.17
2019-05-21T19:30:24.479Z,5.57
2019-05-21T19:32:54.648Z,5.67
2019-05-21T19:35:24.952Z,5.43
2019-05-21T19:37:55.398Z,5.00
2019-05-21T19:40:26.520Z,5.00
2019-05-21T19:42:56.728Z,5.30
2019-05-21T19:45:26.852Z,4.90
2019-05-21T19:47:57.071Z,4.80
2019-05-21T19:50:26.898Z,5.00
2019-05-21T19:52:56.724Z,5.37
2019-05-21T19:55:27.593Z,4.73
2019-05-21T19:57:58.061Z,4.60
2019-05-21T20:00:30.724Z,5.13
2019-05-21T20:03:00.791Z,5.27
2019-05-21T20:05:31.024Z,4.57
2019-05-21T20:08:01.336Z,4.70
2019-05-21T20:10:34.084Z,5.43
2019-05-21T20:13:03.670Z,5.70
2019-05-21T20:15:33.947Z,5.60
2019-05-21T20:18:07.688Z,5.43
2019-05-21T20:20:37.417Z,5.50
2019-05-21T20:23:09.500Z,5.13
2019-05-21T20:25:53.786Z,5.53
2019-05-21T20:28:11.629Z,4.90
2019-05-21T20:30:44.821Z,5.40
2019-05-21T20:33:15.442Z,4.97
2019-05-21T20:35:45.638Z,4.77
2019-05-21T20:38:17.544Z,4.87
2019-05-21T20:40:48.024Z,4.70
2019-05-21T20:43:17.989Z,5.07
2019-05-21T20:45:51.884Z,5.67
2019-05-21T20:48:26.451Z,5.73
2019-05-21T20:50:56.736Z,5.90
2019-05-21T20:53:27.147Z,6.03
2019-05-21T20:55:57.381Z,5.23
2019-05-21T20:58:27.285Z,5.33
2019-05-21T21:01:00.806Z,5.43
2019-05-21T21:03:32.795Z,5.87
2019-05-21T21:06:04.437Z,5.37
2019-05-21T21:08:36.622Z,5.90
2019-05-21T21:11:09.307Z,6.03
2019-05-21T21:13:40.029Z,5.40
2019-05-21T21:16:10.618Z,6.10
2019-05-21T21:18:40.953Z,5.70
2019-05-21T21:21:11.352Z,5.80
2019-05-21T21:23:42.660Z,6.80
2019-05-21T21:26:13.469Z,5.80
2019-05-21T21:28:43.268Z,6.40
2019-05-21T21:31:13.208Z,7.40
2019-05-21T21:33:44.089Z,7.70
2019-05-21T21:36:13.884Z,7.87
2019-05-21T21:38:44.696Z,7.90
2019-05-21T21:41:14.968Z,6.93
2019-05-21T21:43:44.879Z,8.00
2019-05-21T21:46:15.284Z,7.47
2019-05-21T21:48:46.169Z,7.63
2019-05-21T21:51:17.654Z,8.17
2019-05-21T21:53:48.997Z,8.83
2019-05-21T21:56:19.281Z,8.67
2019-05-21T21:58:49.095Z,8.70
2019-05-21T22:01:49.505Z,8.37
2019-05-21T22:04:23.425Z,8.13
2019-05-21T22:06:54.493Z,8.20
2019-05-21T22:09:32.063Z,10.07
2019-05-21T22:12:03.674Z,9.30
2019-05-21T22:14:49.605Z,10.23
2019-05-21T22:17:09.433Z,10.13
2019-05-21T22:19:40.451Z,9.97
2019-05-21T22:22:11.972Z,10.07
2019-05-21T22:24:41.838Z,9.93
2019-05-21T22:27:11.791Z,10.07
2019-05-21T22:29:41.581Z,10.43
2019-05-21T22:32:11.587Z,10.43
2019-05-21T22:34:42.803Z,10.67
2019-05-21T22:37:15.175Z,10.67
2019-05-21T22:39:46.571Z,10.53
2019-05-21T22:42:17.047Z,11.07
2019-05-21T22:44:48.146Z,11.70
2019-05-21T22:47:18.343Z,10.93
2019-05-21T22:49:48.292Z,11.60
2019-05-21T22:52:18.280Z,11.60
2019-05-21T22:54:48.111Z,12.87
2019-05-21T22:57:18.058Z,12.13
2019-05-21T22:59:48.508Z,11.97
2019-05-21T23:02:23.627Z,12.17
2019-05-21T23:04:53.773Z,11.53
2019-05-21T23:07:23.941Z,12.07
2019-05-21T23:09:54.660Z,12.07
2019-05-21T23:12:25.013Z,10.90
2019-05-21T23:14:54.834Z,11.23
2019-05-21T23:17:25.174Z,11.13
2019-05-21T23:19:55.847Z,12.77
2019-05-21T23:22:27.703Z,11.67
2019-05-21T23:24:57.737Z,12.40
2019-05-21T23:27:28.708Z,12.47
2019-05-21T23:29:58.624Z,12.67
2019-05-21T23:32:28.943Z,13.07
2019-05-21T23:34:58.923Z,12.63
2019-05-21T23:37:31.243Z,14.87
2019-05-21T23:40:01.556Z,14.33
2019-05-21T23:42:32.011Z,14.10
2019-05-21T23:45:02.944Z,13.67
2019-05-21T23:47:32.930Z,15.27
2019-05-21T23:50:02.858Z,14.83
2019-05-21T23:52:34.278Z,14.17
2019-05-21T23:55:05.127Z,15.03
2019-05-21T23:57:36.597Z,15.10
